sensor_id;sensor_type;location;lat;lon;timestamp;P1;durP1;ratioP1;P2;durP2;ratioP2
71975;SDS011;68326;52.124;5.424;2023-07-13T00:00:38;8.77;;;0.80;;
71975;SDS011;68326;52.124;5.424;2023-07-13T00:03:05;5.72;;;1.20;;
71975;SDS011;68326;52.124;5.424;2023-07-13T00:05:31;3.90;;;0.80;;
71975;SDS011;68326;52.124;5.424;2023-07-13T00:07:58;5.68;;;0.90;;
71975;SDS011;68326;52.124;5.424;2023-07-13T00:10:25;5.82;;;0.80;;
71975;SDS011;68326;52.124;5.424;2023-07-13T00:12:52;3.27;;;0.87;;
71975;SDS011;68326;52.124;5.424;2023-07-13T00:15:22;6.45;;;0.75;;
71975;SDS011;68326;52.124;5.424;2023-07-13T00:17:56;6.43;;;0.82;;
71975;SDS011;68326;52.124;5.424;2023-07-13T00:20:23;4.95;;;0.77;;
71975;SDS011;68326;52.124;5.424;2023-07-13T00:22:52;5.53;;;0.98;;
71975;SDS011;68326;52.124;5.424;2023-07-13T00:25:20;5.37;;;0.53;;
71975;SDS011;68326;52.124;5.424;2023-07-13T00:27:50;6.35;;;0.75;;
71975;SDS011;68326;52.124;5.424;2023-07-13T00:30:17;5.53;;;0.93;;
71975;SDS011;68326;52.124;5.424;2023-07-13T00:32:44;5.25;;;0.90;;
71975;SDS011;68326;52.124;5.424;2023-07-13T00:35:12;1.70;;;0.45;;
71975;SDS011;68326;52.124;5.424;2023-07-13T00:37:40;4.40;;;0.80;;
71975;SDS011;68326;52.124;5.424;2023-07-13T00:40:07;4.93;;;0.80;;
71975;SDS011;68326;52.124;5.424;2023-07-13T00:42:36;6.30;;;0.77;;
71975;SDS011;68326;52.124;5.424;2023-07-13T00:45:04;6.28;;;1.02;;
71975;SDS011;68326;52.124;5.424;2023-07-13T00:47:31;2.17;;;0.90;;
71975;SDS011;68326;52.124;5.424;2023-07-13T00:49:58;6.80;;;0.90;;
71975;SDS011;68326;52.124;5.424;2023-07-13T00:52:25;2.38;;;0.55;;
71975;SDS011;68326;52.124;5.424;2023-07-13T00:54:52;6.03;;;0.82;;
71975;SDS011;68326;52.124;5.424;2023-07-13T00:57:19;1.73;;;0.43;;
71975;SDS011;68326;52.124;5.424;2023-07-13T00:59:49;4.45;;;0.70;;
71975;SDS011;68326;52.124;5.424;2023-07-13T01:02:20;5.90;;;0.80;;
71975;SDS011;68326;52.124;5.424;2023-07-13T01:04:48;6.95;;;0.80;;
71975;SDS011;68326;52.124;5.424;2023-07-13T01:07:15;3.38;;;0.75;;
71975;SDS011;68326;52.124;5.424;2023-07-13T01:09:42;5.60;;;0.73;;
71975;SDS011;68326;52.124;5.424;2023-07-13T01:12:10;8.13;;;0.90;;
71975;SDS011;68326;52.124;5.424;2023-07-13T01:14:37;2.47;;;0.57;;
71975;SDS011;68326;52.124;5.424;2023-07-13T01:17:04;4.55;;;0.60;;
71975;SDS011;68326;52.124;5.424;2023-07-13T01:19:35;3.75;;;0.50;;
71975;SDS011;68326;52.124;5.424;2023-07-13T01:22:09;5.88;;;1.13;;
71975;SDS011;68326;52.124;5.424;2023-07-13T01:24:42;3.05;;;0.80;;
71975;SDS011;68326;52.124;5.424;2023-07-13T01:27:11;3.87;;;0.60;;
71975;SDS011;68326;52.124;5.424;2023-07-13T01:29:40;3.72;;;0.65;;
71975;SDS011;68326;52.124;5.424;2023-07-13T01:32:09;6.07;;;0.90;;
71975;SDS011;68326;52.124;5.424;2023-07-13T01:34:38;3.75;;;0.90;;
71975;SDS011;68326;52.124;5.424;2023-07-13T01:37:09;3.45;;;0.70;;
71975;SDS011;68326;52.124;5.424;2023-07-13T01:39:37;2.03;;;0.60;;
71975;SDS011;68326;52.124;5.424;2023-07-13T01:42:04;5.43;;;0.95;;
71975;SDS011;68326;52.124;5.424;2023-07-13T01:44:31;4.38;;;0.80;;
71975;SDS011;68326;52.124;5.424;2023-07-13T01:46:57;3.58;;;0.63;;
71975;SDS011;68326;52.124;5.424;2023-07-13T01:49:24;3.13;;;0.88;;
71975;SDS011;68326;52.124;5.424;2023-07-13T01:51:51;4.20;;;0.90;;
71975;SDS011;68326;52.124;5.424;2023-07-13T01:54:17;2.72;;;0.63;;
71975;SDS011;68326;52.124;5.424;2023-07-13T01:56:44;5.72;;;0.80;;
71975;SDS011;68326;52.124;5.424;2023-07-13T01:59:10;3.00;;;0.70;;
71975;SDS011;68326;52.124;5.424;2023-07-13T02:01:37;6.22;;;1.05;;
71975;SDS011;68326;52.124;5.424;2023-07-13T02:04:04;4.23;;;0.90;;
71975;SDS011;68326;52.124;5.424;2023-07-13T02:06:30;2.83;;;0.60;;
71975;SDS011;68326;52.124;5.424;2023-07-13T02:08:57;7.20;;;0.70;;
71975;SDS011;68326;52.124;5.424;2023-07-13T02:11:24;7.00;;;1.08;;
71975;SDS011;68326;52.124;5.424;2023-07-13T02:13:51;4.70;;;0.77;;
71975;SDS011;68326;52.124;5.424;2023-07-13T02:16:18;4.80;;;0.70;;
71975;SDS011;68326;52.124;5.424;2023-07-13T02:18:44;4.15;;;0.70;;
71975;SDS011;68326;52.124;5.424;2023-07-13T02:21:11;4.03;;;0.77;;
71975;SDS011;68326;52.124;5.424;2023-07-13T02:23:37;4.75;;;1.00;;
71975;SDS011;68326;52.124;5.424;2023-07-13T02:26:04;4.72;;;0.73;;
71975;SDS011;68326;52.124;5.424;2023-07-13T02:28:31;5.50;;;0.90;;
71975;SDS011;68326;52.124;5.424;2023-07-13T02:31:03;6.38;;;0.98;;
71975;SDS011;68326;52.124;5.424;2023-07-13T02:33:34;5.22;;;0.88;;
71975;SDS011;68326;52.124;5.424;2023-07-13T02:36:01;4.60;;;0.95;;
71975;SDS011;68326;52.124;5.424;2023-07-13T02:38:28;3.90;;;0.90;;
71975;SDS011;68326;52.124;5.424;2023-07-13T02:40:54;4.40;;;0.90;;
71975;SDS011;68326;52.124;5.424;2023-07-13T02:43:21;6.57;;;0.88;;
71975;SDS011;68326;52.124;5.424;2023-07-13T02:45:48;7.50;;;1.30;;
71975;SDS011;68326;52.124;5.424;2023-07-13T02:48:14;7.00;;;1.25;;
71975;SDS011;68326;52.124;5.424;2023-07-13T02:50:41;4.53;;;1.05;;
71975;SDS011;68326;52.124;5.424;2023-07-13T02:53:08;10.13;;;1.10;;
71975;SDS011;68326;52.124;5.424;2023-07-13T02:55:34;6.70;;;1.00;;
71975;SDS011;68326;52.124;5.424;2023-07-13T02:58:01;5.22;;;0.70;;
71975;SDS011;68326;52.124;5.424;2023-07-13T03:00:27;4.70;;;0.98;;
71975;SDS011;68326;52.124;5.424;2023-07-13T03:02:54;6.53;;;1.17;;
71975;SDS011;68326;52.124;5.424;2023-07-13T03:05:24;5.30;;;1.23;;
71975;SDS011;68326;52.124;5.424;2023-07-13T03:07:50;6.22;;;1.20;;
71975;SDS011;68326;52.124;5.424;2023-07-13T03:10:17;7.15;;;1.40;;
71975;SDS011;68326;52.124;5.424;2023-07-13T03:12:44;5.88;;;1.13;;
71975;SDS011;68326;52.124;5.424;2023-07-13T03:15:11;5.28;;;0.77;;
71975;SDS011;68326;52.124;5.424;2023-07-13T03:17:37;6.03;;;1.20;;
71975;SDS011;68326;52.124;5.424;2023-07-13T03:20:04;8.85;;;1.30;;
71975;SDS011;68326;52.124;5.424;2023-07-13T03:22:31;4.32;;;0.90;;
71975;SDS011;68326;52.124;5.424;2023-07-13T03:24:58;6.30;;;1.05;;
71975;SDS011;68326;52.124;5.424;2023-07-13T03:27:24;6.38;;;1.20;;
71975;SDS011;68326;52.124;5.424;2023-07-13T03:29:51;6.63;;;1.20;;
71975;SDS011;68326;52.124;5.424;2023-07-13T03:32:18;7.82;;;1.40;;
71975;SDS011;68326;52.124;5.424;2023-07-13T03:34:44;4.20;;;1.30;;
71975;SDS011;68326;52.124;5.424;2023-07-13T03:37:11;4.82;;;1.10;;
71975;SDS011;68326;52.124;5.424;2023-07-13T03:39:37;5.53;;;1.30;;
71975;SDS011;68326;52.124;5.424;2023-07-13T03:42:04;6.23;;;1.40;;
71975;SDS011;68326;52.124;5.424;2023-07-13T03:44:31;4.55;;;1.10;;
71975;SDS011;68326;52.124;5.424;2023-07-13T03:46:58;5.93;;;1.25;;
71975;SDS011;68326;52.124;5.424;2023-07-13T03:49:25;7.07;;;1.20;;
71975;SDS011;68326;52.124;5.424;2023-07-13T03:51:51;5.15;;;1.20;;
71975;SDS011;68326;52.124;5.424;2023-07-13T03:54:19;5.13;;;1.37;;
71975;SDS011;68326;52.124;5.424;2023-07-13T03:56:46;7.80;;;1.50;;
71975;SDS011;68326;52.124;5.424;2023-07-13T03:59:12;7.20;;;1.75;;
71975;SDS011;68326;52.124;5.424;2023-07-13T04:01:39;5.10;;;1.45;;
71975;SDS011;68326;52.124;5.424;2023-07-13T04:04:05;5.35;;;1.13;;
71975;SDS011;68326;52.124;5.424;2023-07-13T04:06:32;7.03;;;1.43;;
71975;SDS011;68326;52.124;5.424;2023-07-13T04:09:00;6.00;;;1.35;;
71975;SDS011;68326;52.124;5.424;2023-07-13T04:11:28;9.82;;;1.38;;
71975;SDS011;68326;52.124;5.424;2023-07-13T04:13:58;7.70;;;1.33;;
71975;SDS011;68326;52.124;5.424;2023-07-13T04:16:24;4.90;;;1.50;;
71975;SDS011;68326;52.124;5.424;2023-07-13T04:18:52;9.40;;;2.03;;
71975;SDS011;68326;52.124;5.424;2023-07-13T04:21:29;8.15;;;1.58;;
71975;SDS011;68326;52.124;5.424;2023-07-13T04:23:57;4.70;;;1.98;;
71975;SDS011;68326;52.124;5.424;2023-07-13T04:26:24;8.25;;;1.48;;
71975;SDS011;68326;52.124;5.424;2023-07-13T04:28:50;7.43;;;1.77;;
71975;SDS011;68326;52.124;5.424;2023-07-13T04:31:17;5.57;;;1.40;;
71975;SDS011;68326;52.124;5.424;2023-07-13T04:33:44;8.00;;;1.85;;
71975;SDS011;68326;52.124;5.424;2023-07-13T04:36:14;6.65;;;1.45;;
71975;SDS011;68326;52.124;5.424;2023-07-13T04:38:42;9.65;;;1.60;;
71975;SDS011;68326;52.124;5.424;2023-07-13T04:41:08;5.80;;;1.83;;
71975;SDS011;68326;52.124;5.424;2023-07-13T04:43:35;4.83;;;1.40;;
71975;SDS011;68326;52.124;5.424;2023-07-13T04:46:03;10.20;;;2.25;;
71975;SDS011;68326;52.124;5.424;2023-07-13T04:48:40;7.15;;;1.45;;
71975;SDS011;68326;52.124;5.424;2023-07-13T04:51:07;8.02;;;2.00;;
71975;SDS011;68326;52.124;5.424;2023-07-13T04:53:34;9.55;;;1.98;;
71975;SDS011;68326;52.124;5.424;2023-07-13T04:56:01;5.23;;;1.70;;
71975;SDS011;68326;52.124;5.424;2023-07-13T04:58:29;9.20;;;1.70;;
71975;SDS011;68326;52.124;5.424;2023-07-13T05:01:03;10.05;;;2.13;;
71975;SDS011;68326;52.124;5.424;2023-07-13T05:03:32;10.98;;;2.05;;
71975;SDS011;68326;52.124;5.424;2023-07-13T05:06:00;11.27;;;2.28;;
71975;SDS011;68326;52.124;5.424;2023-07-13T05:08:29;8.97;;;2.00;;
71975;SDS011;68326;52.124;5.424;2023-07-13T05:10:55;8.13;;;1.70;;
71975;SDS011;68326;52.124;5.424;2023-07-13T05:13:22;11.30;;;2.50;;
71975;SDS011;68326;52.124;5.424;2023-07-13T05:15:55;12.30;;;2.20;;
71975;SDS011;68326;52.124;5.424;2023-07-13T05:18:27;9.95;;;3.45;;
71975;SDS011;68326;52.124;5.424;2023-07-13T05:20:56;11.57;;;2.23;;
71975;SDS011;68326;52.124;5.424;2023-07-13T05:23:24;12.68;;;2.45;;
71975;SDS011;68326;52.124;5.424;2023-07-13T05:25:51;10.82;;;2.53;;
71975;SDS011;68326;52.124;5.424;2023-07-13T05:28:17;9.00;;;2.50;;
71975;SDS011;68326;52.124;5.424;2023-07-13T05:30:48;9.93;;;2.38;;
71975;SDS011;68326;52.124;5.424;2023-07-13T05:33:15;11.07;;;2.67;;
71975;SDS011;68326;52.124;5.424;2023-07-13T05:35:43;10.40;;;2.80;;
71975;SDS011;68326;52.124;5.424;2023-07-13T05:38:09;13.77;;;3.45;;
71975;SDS011;68326;52.124;5.424;2023-07-13T05:40:37;10.38;;;2.80;;
71975;SDS011;68326;52.124;5.424;2023-07-13T05:43:03;9.38;;;2.83;;
71975;SDS011;68326;52.124;5.424;2023-07-13T05:45:30;13.67;;;3.60;;
71975;SDS011;68326;52.124;5.424;2023-07-13T05:47:57;11.38;;;3.72;;
71975;SDS011;68326;52.124;5.424;2023-07-13T05:50:25;10.50;;;3.83;;
71975;SDS011;68326;52.124;5.424;2023-07-13T05:52:52;13.93;;;4.18;;
71975;SDS011;68326;52.124;5.424;2023-07-13T05:55:19;11.45;;;3.90;;
71975;SDS011;68326;52.124;5.424;2023-07-13T05:57:46;11.27;;;4.00;;
71975;SDS011;68326;52.124;5.424;2023-07-13T06:00:13;15.10;;;4.63;;
71975;SDS011;68326;52.124;5.424;2023-07-13T06:02:41;13.27;;;4.25;;
71975;SDS011;68326;52.124;5.424;2023-07-13T06:05:08;16.58;;;5.18;;
71975;SDS011;68326;52.124;5.424;2023-07-13T06:07:35;12.85;;;4.03;;
71975;SDS011;68326;52.124;5.424;2023-07-13T06:10:01;12.60;;;4.23;;
71975;SDS011;68326;52.124;5.424;2023-07-13T06:12:28;15.10;;;5.03;;
71975;SDS011;68326;52.124;5.424;2023-07-13T06:14:54;13.13;;;4.22;;
71975;SDS011;68326;52.124;5.424;2023-07-13T06:17:21;13.50;;;4.72;;
71975;SDS011;68326;52.124;5.424;2023-07-13T06:19:47;12.68;;;4.70;;
71975;SDS011;68326;52.124;5.424;2023-07-13T06:22:14;15.77;;;5.27;;
71975;SDS011;68326;52.124;5.424;2023-07-13T06:24:41;11.60;;;4.55;;
71975;SDS011;68326;52.124;5.424;2023-07-13T06:27:07;17.77;;;5.65;;
71975;SDS011;68326;52.124;5.424;2023-07-13T06:29:34;13.23;;;5.00;;
71975;SDS011;68326;52.124;5.424;2023-07-13T06:32:01;12.88;;;6.38;;
71975;SDS011;68326;52.124;5.424;2023-07-13T06:34:27;14.83;;;5.63;;
71975;SDS011;68326;52.124;5.424;2023-07-13T06:36:54;11.65;;;6.10;;
71975;SDS011;68326;52.124;5.424;2023-07-13T06:39:21;10.68;;;5.25;;
71975;SDS011;68326;52.124;5.424;2023-07-13T06:41:47;16.60;;;5.57;;
71975;SDS011;68326;52.124;5.424;2023-07-13T06:44:14;15.10;;;5.85;;
71975;SDS011;68326;52.124;5.424;2023-07-13T06:46:40;16.43;;;5.60;;
71975;SDS011;68326;52.124;5.424;2023-07-13T06:49:08;16.92;;;6.45;;
71975;SDS011;68326;52.124;5.424;2023-07-13T06:51:35;15.10;;;5.57;;
71975;SDS011;68326;52.124;5.424;2023-07-13T06:54:01;12.70;;;5.78;;
71975;SDS011;68326;52.124;5.424;2023-07-13T06:56:28;17.40;;;6.28;;
71975;SDS011;68326;52.124;5.424;2023-07-13T06:58:54;12.10;;;5.40;;
71975;SDS011;68326;52.124;5.424;2023-07-13T07:01:21;14.85;;;6.32;;
71975;SDS011;68326;52.124;5.424;2023-07-13T07:03:48;14.57;;;5.70;;
71975;SDS011;68326;52.124;5.424;2023-07-13T07:08:46;16.15;;;6.18;;
71975;SDS011;68326;52.124;5.424;2023-07-13T07:11:14;15.20;;;5.83;;
71975;SDS011;68326;52.124;5.424;2023-07-13T07:13:43;16.55;;;6.30;;
71975;SDS011;68326;52.124;5.424;2023-07-13T07:16:10;16.17;;;6.30;;
71975;SDS011;68326;52.124;5.424;2023-07-13T07:18:37;16.50;;;6.75;;
71975;SDS011;68326;52.124;5.424;2023-07-13T07:21:03;11.85;;;6.68;;
71975;SDS011;68326;52.124;5.424;2023-07-13T07:23:30;13.70;;;6.10;;
71975;SDS011;68326;52.124;5.424;2023-07-13T07:25:57;15.40;;;6.43;;
71975;SDS011;68326;52.124;5.424;2023-07-13T07:28:24;14.07;;;6.68;;
71975;SDS011;68326;52.124;5.424;2023-07-13T07:30:55;12.43;;;5.93;;
71975;SDS011;68326;52.124;5.424;2023-07-13T07:33:25;20.92;;;7.07;;
71975;SDS011;68326;52.124;5.424;2023-07-13T07:35:52;15.03;;;6.17;;
71975;SDS011;68326;52.124;5.424;2023-07-13T07:38:22;12.48;;;6.28;;
71975;SDS011;68326;52.124;5.424;2023-07-13T07:40:51;14.82;;;6.13;;
71975;SDS011;68326;52.124;5.424;2023-07-13T07:43:21;17.23;;;6.72;;
71975;SDS011;68326;52.124;5.424;2023-07-13T07:45:48;15.35;;;7.07;;
71975;SDS011;68326;52.124;5.424;2023-07-13T07:48:14;14.87;;;6.80;;
71975;SDS011;68326;52.124;5.424;2023-07-13T07:50:41;16.13;;;7.30;;
71975;SDS011;68326;52.124;5.424;2023-07-13T07:53:07;17.60;;;7.20;;
71975;SDS011;68326;52.124;5.424;2023-07-13T07:55:36;15.32;;;7.22;;
71975;SDS011;68326;52.124;5.424;2023-07-13T07:58:06;16.23;;;6.32;;
71975;SDS011;68326;52.124;5.424;2023-07-13T08:00:53;17.13;;;6.23;;
71975;SDS011;68326;52.124;5.424;2023-07-13T08:03:23;15.07;;;5.97;;
71975;SDS011;68326;52.124;5.424;2023-07-13T08:05:52;13.63;;;5.60;;
71975;SDS011;68326;52.124;5.424;2023-07-13T08:08:23;16.30;;;5.85;;
71975;SDS011;68326;52.124;5.424;2023-07-13T08:10:50;12.90;;;6.18;;
71975;SDS011;68326;52.124;5.424;2023-07-13T08:13:21;13.50;;;5.63;;
71975;SDS011;68326;52.124;5.424;2023-07-13T08:15:47;12.57;;;5.30;;
71975;SDS011;68326;52.124;5.424;2023-07-13T08:18:15;12.73;;;5.80;;
71975;SDS011;68326;52.124;5.424;2023-07-13T08:20:42;9.27;;;4.88;;
71975;SDS011;68326;52.124;5.424;2023-07-13T08:23:09;12.75;;;4.90;;
71975;SDS011;68326;52.124;5.424;2023-07-13T08:25:36;10.37;;;5.27;;
71975;SDS011;68326;52.124;5.424;2023-07-13T08:28:03;13.23;;;4.88;;
71975;SDS011;68326;52.124;5.424;2023-07-13T08:30:30;11.23;;;4.57;;
71975;SDS011;68326;52.124;5.424;2023-07-13T08:32:57;10.45;;;4.70;;
71975;SDS011;68326;52.124;5.424;2023-07-13T08:35:23;10.95;;;4.85;;
71975;SDS011;68326;52.124;5.424;2023-07-13T08:37:52;13.27;;;4.97;;
71975;SDS011;68326;52.124;5.424;2023-07-13T08:40:18;10.07;;;4.30;;
71975;SDS011;68326;52.124;5.424;2023-07-13T08:43:34;6.72;;;3.35;;
71975;SDS011;68326;52.124;5.424;2023-07-13T08:45:46;6.55;;;2.63;;
71975;SDS011;68326;52.124;5.424;2023-07-13T08:53:41;3.55;;;1.67;;
71975;SDS011;68326;52.124;5.424;2023-07-13T08:56:16;5.40;;;1.75;;
71975;SDS011;68326;52.124;5.424;2023-07-13T08:58:46;5.25;;;1.50;;
71975;SDS011;68326;52.124;5.424;2023-07-13T09:01:20;2.83;;;1.40;;
71975;SDS011;68326;52.124;5.424;2023-07-13T09:06:43;4.43;;;1.65;;
71975;SDS011;68326;52.124;5.424;2023-07-13T09:09:18;2.10;;;1.48;;
71975;SDS011;68326;52.124;5.424;2023-07-13T09:12:11;4.93;;;1.40;;
71975;SDS011;68326;52.124;5.424;2023-07-13T09:14:56;5.03;;;1.65;;
71975;SDS011;68326;52.124;5.424;2023-07-13T09:17:29;3.27;;;1.43;;
71975;SDS011;68326;52.124;5.424;2023-07-13T09:22:40;4.63;;;2.13;;
71975;SDS011;68326;52.124;5.424;2023-07-13T09:25:29;7.45;;;1.70;;
71975;SDS011;68326;52.124;5.424;2023-07-13T09:28:11;5.68;;;1.75;;
71975;SDS011;68326;52.124;5.424;2023-07-13T09:33:50;5.32;;;1.67;;
71975;SDS011;68326;52.124;5.424;2023-07-13T09:36:18;3.35;;;1.60;;
71975;SDS011;68326;52.124;5.424;2023-07-13T09:41:53;9.95;;;1.80;;
71975;SDS011;68326;52.124;5.424;2023-07-13T09:44:29;3.13;;;1.40;;
71975;SDS011;68326;52.124;5.424;2023-07-13T09:46:57;6.28;;;1.23;;
71975;SDS011;68326;52.124;5.424;2023-07-13T09:49:29;4.40;;;1.20;;
71975;SDS011;68326;52.124;5.424;2023-07-13T09:52:01;3.53;;;1.20;;
71975;SDS011;68326;52.124;5.424;2023-07-13T09:54:32;3.35;;;1.42;;
71975;SDS011;68326;52.124;5.424;2023-07-13T09:57:00;4.93;;;1.67;;
71975;SDS011;68326;52.124;5.424;2023-07-13T09:59:35;3.95;;;1.90;;
71975;SDS011;68326;52.124;5.424;2023-07-13T10:02:26;5.30;;;1.60;;
71975;SDS011;68326;52.124;5.424;2023-07-13T10:05:01;3.42;;;1.25;;
71975;SDS011;68326;52.124;5.424;2023-07-13T10:07:30;6.13;;;1.73;;
71975;SDS011;68326;52.124;5.424;2023-07-13T10:09:59;3.60;;;1.33;;
71975;SDS011;68326;52.124;5.424;2023-07-13T10:12:28;4.10;;;1.42;;
71975;SDS011;68326;52.124;5.424;2023-07-13T10:14:57;3.83;;;1.45;;
71975;SDS011;68326;52.124;5.424;2023-07-13T10:17:46;6.22;;;1.40;;
71975;SDS011;68326;52.124;5.424;2023-07-13T10:20:13;4.25;;;1.77;;
71975;SDS011;68326;52.124;5.424;2023-07-13T10:25:31;4.07;;;1.77;;
71975;SDS011;68326;52.124;5.424;2023-07-13T10:28:43;5.85;;;1.75;;
71975;SDS011;68326;52.124;5.424;2023-07-13T10:30:59;4.72;;;2.00;;
71975;SDS011;68326;52.124;5.424;2023-07-13T10:33:29;3.75;;;1.65;;
71975;SDS011;68326;52.124;5.424;2023-07-13T10:36:05;3.40;;;1.70;;
71975;SDS011;68326;52.124;5.424;2023-07-13T10:38:46;4.38;;;2.22;;
71975;SDS011;68326;52.124;5.424;2023-07-13T10:41:20;3.83;;;1.55;;
71975;SDS011;68326;52.124;5.424;2023-07-13T10:43:50;3.40;;;1.63;;
71975;SDS011;68326;52.124;5.424;2023-07-13T10:46:19;3.95;;;1.60;;
71975;SDS011;68326;52.124;5.424;2023-07-13T10:48:50;2.80;;;1.50;;
71975;SDS011;68326;52.124;5.424;2023-07-13T10:51:20;3.35;;;1.40;;
71975;SDS011;68326;52.124;5.424;2023-07-13T10:53:48;3.70;;;1.40;;
71975;SDS011;68326;52.124;5.424;2023-07-13T10:56:46;3.30;;;1.50;;
71975;SDS011;68326;52.124;5.424;2023-07-13T10:59:26;2.95;;;1.50;;
71975;SDS011;68326;52.124;5.424;2023-07-13T11:01:55;5.33;;;1.50;;
71975;SDS011;68326;52.124;5.424;2023-07-13T11:04:25;3.40;;;1.27;;
71975;SDS011;68326;52.124;5.424;2023-07-13T11:06:56;2.58;;;1.30;;
71975;SDS011;68326;52.124;5.424;2023-07-13T11:09:33;2.83;;;1.10;;
71975;SDS011;68326;52.124;5.424;2023-07-13T11:19:54;4.30;;;1.73;;
71975;SDS011;68326;52.124;5.424;2023-07-13T11:22:44;3.75;;;1.65;;
71975;SDS011;68326;52.124;5.424;2023-07-13T11:25:25;4.95;;;1.42;;
71975;SDS011;68326;52.124;5.424;2023-07-13T11:41:51;3.77;;;2.20;;
71975;SDS011;68326;52.124;5.424;2023-07-13T11:44:23;3.13;;;1.60;;
71975;SDS011;68326;52.124;5.424;2023-07-13T11:46:52;5.35;;;2.33;;
71975;SDS011;68326;52.124;5.424;2023-07-13T11:49:22;4.65;;;1.55;;
71975;SDS011;68326;52.124;5.424;2023-07-13T11:51:51;2.65;;;1.60;;
71975;SDS011;68326;52.124;5.424;2023-07-13T11:56:57;2.88;;;1.20;;
71975;SDS011;68326;52.124;5.424;2023-07-13T11:59:29;3.28;;;1.60;;
71975;SDS011;68326;52.124;5.424;2023-07-13T12:01:56;4.82;;;1.60;;
71975;SDS011;68326;52.124;5.424;2023-07-13T12:04:31;3.50;;;1.60;;
71975;SDS011;68326;52.124;5.424;2023-07-13T12:07:04;3.40;;;1.73;;
71975;SDS011;68326;52.124;5.424;2023-07-13T12:09:41;4.90;;;2.28;;
71975;SDS011;68326;52.124;5.424;2023-07-13T12:12:16;3.20;;;2.05;;
71975;SDS011;68326;52.124;5.424;2023-07-13T12:14:45;4.07;;;2.03;;
71975;SDS011;68326;52.124;5.424;2023-07-13T12:19:47;5.63;;;2.17;;
71975;SDS011;68326;52.124;5.424;2023-07-13T12:22:15;3.05;;;1.77;;
71975;SDS011;68326;52.124;5.424;2023-07-13T12:24:43;5.00;;;2.10;;
71975;SDS011;68326;52.124;5.424;2023-07-13T12:27:21;5.70;;;2.22;;
71975;SDS011;68326;52.124;5.424;2023-07-13T12:29:53;4.18;;;2.20;;
71975;SDS011;68326;52.124;5.424;2023-07-13T12:32:25;5.17;;;2.40;;
71975;SDS011;68326;52.124;5.424;2023-07-13T12:34:56;4.15;;;2.03;;
71975;SDS011;68326;52.124;5.424;2023-07-13T12:37:42;5.25;;;1.92;;
71975;SDS011;68326;52.124;5.424;2023-07-13T12:40:13;5.90;;;2.17;;
71975;SDS011;68326;52.124;5.424;2023-07-13T12:42:46;3.78;;;1.80;;
71975;SDS011;68326;52.124;5.424;2023-07-13T12:45:22;4.47;;;1.77;;
71975;SDS011;68326;52.124;5.424;2023-07-13T12:47:55;1.90;;;1.50;;
71975;SDS011;68326;52.124;5.424;2023-07-13T12:50:39;4.50;;;1.60;;
71975;SDS011;68326;52.124;5.424;2023-07-13T12:53:15;3.60;;;1.42;;
71975;SDS011;68326;52.124;5.424;2023-07-13T12:55:49;7.55;;;1.40;;
71975;SDS011;68326;52.124;5.424;2023-07-13T13:01:09;3.13;;;1.17;;
71975;SDS011;68326;52.124;5.424;2023-07-13T13:03:40;5.18;;;1.80;;
71975;SDS011;68326;52.124;5.424;2023-07-13T13:08:41;3.90;;;1.75;;
71975;SDS011;68326;52.124;5.424;2023-07-13T13:11:09;3.03;;;1.50;;
71975;SDS011;68326;52.124;5.424;2023-07-13T13:13:36;5.43;;;1.73;;
71975;SDS011;68326;52.124;5.424;2023-07-13T13:16:14;4.75;;;1.88;;
71975;SDS011;68326;52.124;5.424;2023-07-13T13:18:51;15.80;;;2.28;;
71975;SDS011;68326;52.124;5.424;2023-07-13T13:21:20;4.80;;;1.33;;
71975;SDS011;68326;52.124;5.424;2023-07-13T13:23:47;3.73;;;2.00;;
71975;SDS011;68326;52.124;5.424;2023-07-13T13:26:14;3.30;;;2.10;;
71975;SDS011;68326;52.124;5.424;2023-07-13T13:28:44;3.92;;;1.30;;
71975;SDS011;68326;52.124;5.424;2023-07-13T13:31:12;3.20;;;1.40;;
71975;SDS011;68326;52.124;5.424;2023-07-13T13:33:40;3.55;;;1.60;;
71975;SDS011;68326;52.124;5.424;2023-07-13T13:36:13;5.33;;;1.50;;
71975;SDS011;68326;52.124;5.424;2023-07-13T13:38:40;4.05;;;1.40;;
71975;SDS011;68326;52.124;5.424;2023-07-13T13:41:07;2.92;;;1.45;;
71975;SDS011;68326;52.124;5.424;2023-07-13T13:43:39;6.15;;;1.50;;
71975;SDS011;68326;52.124;5.424;2023-07-13T13:46:24;4.00;;;1.60;;
71975;SDS011;68326;52.124;5.424;2023-07-13T13:48:56;2.80;;;1.20;;
71975;SDS011;68326;52.124;5.424;2023-07-13T13:51:23;2.83;;;1.42;;
71975;SDS011;68326;52.124;5.424;2023-07-13T13:53:50;3.00;;;1.63;;
71975;SDS011;68326;52.124;5.424;2023-07-13T13:56:17;2.90;;;1.42;;
71975;SDS011;68326;52.124;5.424;2023-07-13T13:58:45;4.55;;;1.40;;
71975;SDS011;68326;52.124;5.424;2023-07-13T14:01:13;3.70;;;1.67;;
71975;SDS011;68326;52.124;5.424;2023-07-13T14:03:44;3.60;;;1.52;;
71975;SDS011;68326;52.124;5.424;2023-07-13T14:06:12;3.47;;;1.45;;
71975;SDS011;68326;52.124;5.424;2023-07-13T14:08:40;4.20;;;1.92;;
71975;SDS011;68326;52.124;5.424;2023-07-13T14:11:17;2.38;;;1.50;;
71975;SDS011;68326;52.124;5.424;2023-07-13T14:14:04;3.40;;;1.40;;
71975;SDS011;68326;52.124;5.424;2023-07-13T14:16:31;3.60;;;1.70;;
71975;SDS011;68326;52.124;5.424;2023-07-13T14:19:00;2.58;;;1.48;;
71975;SDS011;68326;52.124;5.424;2023-07-13T14:21:28;2.88;;;1.45;;
71975;SDS011;68326;52.124;5.424;2023-07-13T14:23:55;4.55;;;1.20;;
71975;SDS011;68326;52.124;5.424;2023-07-13T14:26:23;3.37;;;1.40;;
71975;SDS011;68326;52.124;5.424;2023-07-13T14:28:55;2.47;;;1.25;;
71975;SDS011;68326;52.124;5.424;2023-07-13T14:31:24;5.88;;;1.38;;
71975;SDS011;68326;52.124;5.424;2023-07-13T14:33:56;4.05;;;1.50;;
71975;SDS011;68326;52.124;5.424;2023-07-13T14:36:45;3.10;;;1.27;;
71975;SDS011;68326;52.124;5.424;2023-07-13T14:39:19;4.40;;;1.23;;
71975;SDS011;68326;52.124;5.424;2023-07-13T14:41:52;3.13;;;1.20;;
71975;SDS011;68326;52.124;5.424;2023-07-13T14:44:22;3.28;;;1.38;;
71975;SDS011;68326;52.124;5.424;2023-07-13T14:46:52;6.10;;;1.50;;
71975;SDS011;68326;52.124;5.424;2023-07-13T14:49:29;2.88;;;1.45;;
71975;SDS011;68326;52.124;5.424;2023-07-13T14:52:12;4.20;;;1.50;;
71975;SDS011;68326;52.124;5.424;2023-07-13T14:54:40;4.05;;;1.35;;
71975;SDS011;68326;52.124;5.424;2023-07-13T14:57:10;4.25;;;1.77;;
71975;SDS011;68326;52.124;5.424;2023-07-13T14:59:38;4.40;;;1.20;;
71975;SDS011;68326;52.124;5.424;2023-07-13T15:02:38;4.22;;;1.27;;
71975;SDS011;68326;52.124;5.424;2023-07-13T15:05:00;2.50;;;1.20;;
71975;SDS011;68326;52.124;5.424;2023-07-13T15:07:27;3.55;;;1.17;;
71975;SDS011;68326;52.124;5.424;2023-07-13T15:09:54;3.50;;;1.10;;
71975;SDS011;68326;52.124;5.424;2023-07-13T15:12:21;5.70;;;1.50;;
71975;SDS011;68326;52.124;5.424;2023-07-13T15:14:47;3.38;;;1.63;;
71975;SDS011;68326;52.124;5.424;2023-07-13T15:20:06;3.83;;;1.17;;
71975;SDS011;68326;52.124;5.424;2023-07-13T15:22:39;5.15;;;1.23;;
71975;SDS011;68326;52.124;5.424;2023-07-13T15:25:08;6.82;;;1.30;;
71975;SDS011;68326;52.124;5.424;2023-07-13T15:27:41;5.53;;;1.30;;
71975;SDS011;68326;52.124;5.424;2023-07-13T15:30:08;3.80;;;1.40;;
71975;SDS011;68326;52.124;5.424;2023-07-13T15:32:35;2.47;;;1.00;;
71975;SDS011;68326;52.124;5.424;2023-07-13T15:35:01;3.78;;;1.20;;
71975;SDS011;68326;52.124;5.424;2023-07-13T15:37:29;3.67;;;1.10;;
71975;SDS011;68326;52.124;5.424;2023-07-13T15:39:55;5.32;;;1.42;;
71975;SDS011;68326;52.124;5.424;2023-07-13T15:42:22;3.23;;;1.20;;
71975;SDS011;68326;52.124;5.424;2023-07-13T15:44:49;3.35;;;1.10;;
71975;SDS011;68326;52.124;5.424;2023-07-13T15:47:15;4.60;;;1.05;;
71975;SDS011;68326;52.124;5.424;2023-07-13T15:49:42;1.85;;;0.73;;
71975;SDS011;68326;52.124;5.424;2023-07-13T15:52:19;4.63;;;0.98;;
71975;SDS011;68326;52.124;5.424;2023-07-13T15:54:49;4.10;;;0.77;;
71975;SDS011;68326;52.124;5.424;2023-07-13T15:57:16;4.43;;;1.05;;